There is a communication problem. Go directly to the Meteoalarm site : www.meteoalarm.eu and check the Weather-warnings there .

Nearby METAR Reports

 

KSJC - San Jose, California, USA
Distance from station: NØ 14km
Oppdatert: 19/06/2024 07:53
Klart
Klart
 Vind fra NNV
Vind: NNV 11 km/h
Temperatur: 16°C
Duggpunkt: 7°C
Fuktighet: 55%
Barometer: 1011.5 hPa
Clouds: Klart
Visibility: 16 km
2024/06/19 05:53 KSJC 190553Z 34006KT 10SM CLR 16/07 A2987 RMK AO2 SLP112 T01610072 10272 20156 53008
KNUQ - Moffett Nas/Mtn, California, USA
Distance from station: N 14km
Oppdatert: 19/06/2024 08:35
Few Clouds
Few Clouds
 Vind fra calm
Vind: Stille
Temperatur: 14°C
Duggpunkt: 8°C
Fuktighet: 67%
Barometer: 1011.5 hPa
Clouds: Few Clouds
Visibility: 14 km
Cloud details: Few Clouds 1494 m
2024/06/19 06:35 KNUQ 190635Z AUTO 00000KT 9SM FEW049 14/08 A2987 RMK AO2
 
KPAO - Palo Alto, California, USA
Distance from station: NNV 23km
Oppdatert: 19/06/2024 05:47
NOT Current
Klart
Klart
 Vind fra NNV
Vind: NNV 13 km/h
Temperatur: 15°C
Duggpunkt: 6°C
Fuktighet: 55%
Barometer: 1010.8 hPa
Clouds: Klart
Visibility: 16 km
2024/06/19 03:47 KPAO 190347Z 33007KT 10SM SKC 15/06 A2985
KRHV - San Jose/Reid, California, USA
Distance from station: ØNØ 19km
Oppdatert: 19/06/2024 06:47
NOT Current
Few Clouds
Few Clouds
 Vind fra VNV
Vind: VNV 11 km/h
Temperatur: 17°C
Duggpunkt: 6°C
Fuktighet: 49%
Barometer: 1011.2 hPa
Clouds: Few Clouds
Visibility: 16 km
Cloud details: Few Clouds 3048 m
2024/06/19 04:47 KRHV 190447Z 29006KT 10SM FEW100 17/06 A2986 RMK LAST
 
KOAK - Oakland, California, USA
Distance from station: NNV 50km
Oppdatert: 19/06/2024 07:53
Few Clouds
Few Clouds
 Vind fra V
Vind: V 9 km/h
Temperatur: 14°C
Duggpunkt: 9°C
Fuktighet: 72%
Barometer: 1011.5 hPa
Clouds: Few Clouds
Visibility: 16 km
Cloud details: Few Clouds 6096 m
2024/06/19 05:53 KOAK 190553Z 27005KT 10SM FEW200 14/09 A2987 RMK AO2 SLP114 T01440089 10206 20139 53011
KSQL - San Carlos Airpo, California, USA
Distance from station: NV 34km
Oppdatert: 19/06/2024 08:35
Klart
Klart
 Vind fra NV
Vind: NV 7 km/h
Temperatur: 13°C
Duggpunkt: 8°C
Fuktighet: 72%
Barometer: 1011.9 hPa
Clouds: Klart
Visibility: 16 km
2024/06/19 06:35 KSQL 190635Z AUTO 32004KT 10SM CLR 13/08 A2988 RMK AO2
 
KSFO - San Francisco, California, USA
Distance from station: NV 49km
Oppdatert: 19/06/2024 07:56
Few Clouds
Few Clouds
 Vind fra V
Vind: V 24 km/h
Temperatur: 12°C
Duggpunkt: 8°C
Fuktighet: 77%
Barometer: 1011.5 hPa
Clouds: Few Clouds
Visibility: 16 km
Cloud details: Few Clouds 6096 m
2024/06/19 05:56 KSFO 190556Z 27013KT 10SM FEW200 12/08 A2987 RMK AO2 SLP113 T01220083 10183 20122 53010
KE16 - San Martin, California, USA
Distance from station: ØSØ 43km
Oppdatert: 19/06/2024 08:35
Klart
Klart
 Vind fra S
Vind: S 7 km/h
Temperatur: 13°C
Duggpunkt: 8°C
Fuktighet: 72%
Barometer: 1012.2 hPa
Clouds: Klart
Visibility: 16 km
2024/06/19 06:35 KE16 190635Z AUTO 17004KT 10SM CLR 13/08 A2989 RMK AO2 PWINO PNO
 
KWVI - Watsonville, California, USA
Distance from station: SSØ 44km
Oppdatert: 19/06/2024 07:53
Klart
Klart
 Vind fra Ø
Vind: Ø 7 km/h
Temperatur: 11°C
Duggpunkt: 9°C
Fuktighet: 88%
Barometer: 1012.5 hPa
Clouds: Klart
Visibility: 16 km
2024/06/19 05:53 KWVI 190553Z AUTO 08004KT 10SM CLR 11/09 A2990 RMK AO2 SLP124 T01110094 10194 20111 51019
KHAF - Half Moon Bay, California, USA
Distance from station: VNV 50km
Oppdatert: 19/06/2024 08:35
Delvis skyet
Delvis skyet
 Vind fra calm
Vind: Stille
Temperatur: 8°C
Duggpunkt: 8°C
Fuktighet: 100%
Barometer: 1012.5 hPa
Clouds: Delvis skyet
Visibility: 11 km
Cloud details: Delvis skyet 427 m
2024/06/19 06:35 KHAF 190635Z AUTO 00000KT 7SM SCT014 08/08 A2990 RMK AO2
 
KHWD - Hayward, California, USA
Distance from station: N 44km
Oppdatert: 19/06/2024 07:54
Klart
Klart
 Vind fra V
Vind: V 11 km/h
Temperatur: 15°C
Duggpunkt: 9°C
Fuktighet: 68%
Barometer: 1011.5 hPa
Clouds: Klart
Visibility: 16 km
2024/06/19 05:54 KHWD 190554Z AUTO 27006KT 10SM CLR 15/09 A2987 RMK AO2 SLP122 T01500089 10211 20144 53008
KLVK - Livermore, California, USA
Distance from station: NNØ 51km
Oppdatert: 19/06/2024 07:53
Klart
Klart
 Vind fra NV
Vind: NV 13 km/h
Temperatur: 14°C
Duggpunkt: 8°C
Fuktighet: 67%
Barometer: 1010.5 hPa
Clouds: Klart
Visibility: 16 km
2024/06/19 05:53 KLVK 190553Z AUTO 31007KT 10SM CLR 14/08 A2984 RMK AO2 SLP101 60000 T01440078 10294 20144 51014